createdAt,value
2018-03-03T00:01:28.500Z,39.48
2018-03-03T00:03:54.456Z,38.71
2018-03-03T00:06:20.387Z,39.53
2018-03-03T00:08:46.321Z,39.28
2018-03-03T00:11:12.255Z,39.79
2018-03-03T00:13:38.181Z,39.18
2018-03-03T00:16:04.127Z,38.53
2018-03-03T00:18:30.064Z,38.81
2018-03-03T00:20:55.977Z,38.92
2018-03-03T00:23:21.914Z,39.53
2018-03-03T00:25:47.843Z,40.08
2018-03-03T00:28:13.787Z,40.04
2018-03-03T00:30:39.733Z,40.42
2018-03-03T00:33:05.673Z,40.29
2018-03-03T00:35:31.633Z,40.78
2018-03-03T00:37:57.567Z,40.70
2018-03-03T00:40:23.490Z,41.83
2018-03-03T00:42:49.425Z,41.28
2018-03-03T00:45:15.364Z,41.23
2018-03-03T00:47:41.281Z,40.44
2018-03-03T00:50:07.235Z,40.49
2018-03-03T00:52:33.185Z,39.91
2018-03-03T00:54:59.132Z,39.92
2018-03-03T00:57:25.073Z,39.90
2018-03-03T00:59:51.009Z,40.00
2018-03-03T01:02:16.933Z,40.67
2018-03-03T01:04:42.877Z,40.36
2018-03-03T01:07:08.808Z,40.75
2018-03-03T01:09:34.762Z,40.23
2018-03-03T01:12:00.693Z,41.43
2018-03-03T01:14:26.668Z,40.46
2018-03-03T01:16:52.607Z,40.60
2018-03-03T01:19:18.552Z,40.67
2018-03-03T01:21:44.478Z,41.29
2018-03-03T01:24:10.410Z,41.24
2018-03-03T01:26:36.332Z,41.39
2018-03-03T01:29:02.274Z,41.32
2018-03-03T01:31:28.210Z,41.27
2018-03-03T01:33:54.162Z,41.63
2018-03-03T01:36:20.104Z,41.71
2018-03-03T01:38:46.051Z,42.21
2018-03-03T01:41:12.013Z,41.84
2018-03-03T01:43:37.943Z,41.67
2018-03-03T01:46:03.857Z,42.10
2018-03-03T01:48:29.810Z,42.02
2018-03-03T01:50:55.765Z,42.59
2018-03-03T01:53:21.717Z,42.17
2018-03-03T01:55:47.658Z,42.32
2018-03-03T01:58:14.618Z,42.71
2018-03-03T02:00:40.550Z,43.07
2018-03-03T02:03:06.577Z,43.66
2018-03-03T02:05:32.516Z,44.55
2018-03-03T02:07:58.446Z,42.84
2018-03-03T02:10:24.370Z,42.81
2018-03-03T02:12:50.286Z,42.21
2018-03-03T02:15:16.206Z,42.40
2018-03-03T02:17:42.128Z,42.39
2018-03-03T02:20:08.062Z,42.42
2018-03-03T02:22:34.050Z,42.72
2018-03-03T02:24:59.970Z,42.88
2018-03-03T02:27:25.900Z,43.19
2018-03-03T02:29:51.832Z,44.12
2018-03-03T02:32:17.752Z,43.72
2018-03-03T02:34:43.684Z,44.48
2018-03-03T02:37:09.621Z,44.47
2018-03-03T02:39:35.564Z,44.74
2018-03-03T02:42:01.504Z,44.58
2018-03-03T02:44:27.461Z,45.03
2018-03-03T02:46:53.415Z,45.14
2018-03-03T02:49:19.334Z,45.92
2018-03-03T02:51:45.255Z,45.42
2018-03-03T02:54:11.174Z,45.34
2018-03-03T02:56:37.101Z,45.62
2018-03-03T02:59:03.044Z,45.65
2018-03-03T03:01:28.978Z,45.72
2018-03-03T03:03:54.908Z,45.60
2018-03-03T03:06:20.860Z,45.71
2018-03-03T03:08:46.786Z,45.27
2018-03-03T03:11:12.718Z,44.59
2018-03-03T03:13:38.650Z,45.64
2018-03-03T03:16:04.608Z,46.66
2018-03-03T03:18:30.557Z,46.69
2018-03-03T03:20:56.494Z,46.41
2018-03-03T03:23:22.418Z,45.74
2018-03-03T03:25:48.350Z,45.04
2018-03-03T03:28:14.315Z,45.20
2018-03-03T03:30:40.253Z,45.11
2018-03-03T03:33:06.195Z,44.82
2018-03-03T03:35:32.163Z,46.48
2018-03-03T03:37:58.087Z,47.41
2018-03-03T03:40:24.029Z,47.87
2018-03-03T03:42:49.960Z,46.42
2018-03-03T03:45:15.902Z,46.44
2018-03-03T03:47:41.828Z,46.30
2018-03-03T03:50:07.795Z,46.02
2018-03-03T03:52:33.733Z,45.85
2018-03-03T03:54:59.667Z,46.14
2018-03-03T03:57:25.595Z,47.53
2018-03-03T03:59:51.598Z,47.26
2018-03-03T04:02:17.569Z,46.43
2018-03-03T04:04:43.523Z,45.89
2018-03-03T04:07:09.462Z,47.69
2018-03-03T04:09:35.391Z,47.48
2018-03-03T04:12:01.307Z,47.90
2018-03-03T04:14:27.246Z,47.22
2018-03-03T04:16:53.177Z,47.39
2018-03-03T04:19:19.115Z,47.26
2018-03-03T04:21:45.053Z,47.81
2018-03-03T04:24:10.995Z,48.08
2018-03-03T04:26:36.964Z,48.75
2018-03-03T04:29:02.926Z,48.57
2018-03-03T04:31:28.855Z,48.62
2018-03-03T04:33:54.840Z,48.32
2018-03-03T04:36:20.786Z,47.39
2018-03-03T04:38:46.722Z,47.92
2018-03-03T04:41:12.660Z,46.95
2018-03-03T04:43:38.602Z,47.75
2018-03-03T04:46:04.559Z,47.88
2018-03-03T04:48:30.493Z,48.81
2018-03-03T04:50:56.481Z,47.96
2018-03-03T04:53:22.406Z,48.87
2018-03-03T04:55:48.346Z,48.52
2018-03-03T04:58:14.284Z,49.15
2018-03-03T05:00:40.223Z,48.43
2018-03-03T05:03:06.148Z,48.69
2018-03-03T05:05:32.081Z,48.45
2018-03-03T05:07:58.028Z,47.82
2018-03-03T05:10:23.960Z,49.55
2018-03-03T05:12:49.911Z,48.76
2018-03-03T05:15:15.846Z,50.19
2018-03-03T05:17:41.770Z,50.40
2018-03-03T05:20:07.698Z,50.40
2018-03-03T05:22:33.639Z,49.46
2018-03-03T05:24:59.603Z,49.22
2018-03-03T05:27:25.539Z,49.03
2018-03-03T05:29:51.495Z,49.30
2018-03-03T05:32:17.431Z,48.15
2018-03-03T05:34:43.394Z,47.86
2018-03-03T05:37:09.346Z,48.35
2018-03-03T05:39:35.338Z,49.47
2018-03-03T05:42:01.327Z,49.54
2018-03-03T05:44:27.277Z,49.62
2018-03-03T05:46:53.225Z,49.73
2018-03-03T05:49:19.151Z,49.10
2018-03-03T05:51:45.145Z,48.04
2018-03-03T05:54:11.223Z,47.87
2018-03-03T05:56:37.159Z,48.43
2018-03-03T05:59:03.091Z,49.94
2018-03-03T06:01:29.033Z,49.66
2018-03-03T06:03:55.316Z,48.94
2018-03-03T06:06:21.270Z,48.60
2018-03-03T06:08:47.203Z,48.07
2018-03-03T06:11:13.135Z,48.86
2018-03-03T06:13:39.102Z,48.83
2018-03-03T06:16:05.064Z,48.07
2018-03-03T06:18:31.049Z,46.66
2018-03-03T06:20:57.005Z,46.35
2018-03-03T06:23:22.941Z,48.12
2018-03-03T06:25:48.884Z,44.65
2018-03-03T06:28:14.811Z,47.81
2018-03-03T06:30:40.765Z,48.64
2018-03-03T06:33:06.729Z,47.75
2018-03-03T06:35:32.672Z,47.29
2018-03-03T06:37:58.630Z,47.35
2018-03-03T06:40:24.570Z,47.64
2018-03-03T06:42:50.599Z,47.42
2018-03-03T06:45:16.531Z,44.27
2018-03-03T06:47:42.539Z,41.70
2018-03-03T06:50:08.491Z,44.10
2018-03-03T06:52:34.437Z,46.11
2018-03-03T06:55:00.415Z,46.22
2018-03-03T06:57:26.355Z,46.60
2018-03-03T06:59:52.296Z,44.64
2018-03-03T07:02:18.249Z,45.58
2018-03-03T07:04:44.192Z,46.71
2018-03-03T07:07:10.131Z,46.02
2018-03-03T07:09:36.073Z,43.47
2018-03-03T07:12:02.000Z,43.61
2018-03-03T07:14:27.941Z,44.73
2018-03-03T07:16:53.897Z,42.25
2018-03-03T07:19:19.841Z,44.17
2018-03-03T07:21:45.784Z,44.58
2018-03-03T07:24:11.805Z,45.90
2018-03-03T07:26:37.749Z,45.43
2018-03-03T07:29:03.708Z,45.40
2018-03-03T07:31:29.635Z,43.79
2018-03-03T07:33:55.570Z,43.55
2018-03-03T07:36:21.607Z,43.43
2018-03-03T07:38:47.575Z,42.68
2018-03-03T07:41:13.571Z,44.39
2018-03-03T07:43:39.553Z,42.91
2018-03-03T07:46:05.514Z,41.15
2018-03-03T07:48:31.518Z,41.85
2018-03-03T07:50:57.422Z,41.25
2018-03-03T07:53:23.379Z,39.73
2018-03-03T07:55:49.311Z,40.89
2018-03-03T07:58:15.299Z,40.99
2018-03-03T08:00:42.335Z,42.00
2018-03-03T08:03:08.284Z,41.99
2018-03-03T08:05:34.245Z,42.51
2018-03-03T08:08:00.180Z,40.73
2018-03-03T08:10:26.107Z,41.73
2018-03-03T08:12:52.050Z,43.45
2018-03-03T08:15:18.106Z,42.69
2018-03-03T08:17:44.109Z,43.16
2018-03-03T08:20:10.054Z,41.55
2018-03-03T08:22:36.079Z,42.47
2018-03-03T08:25:02.102Z,42.87
2018-03-03T08:27:28.096Z,43.13
2018-03-03T08:29:54.042Z,42.50
2018-03-03T08:32:19.992Z,41.83
2018-03-03T08:34:45.954Z,40.94
2018-03-03T08:37:11.917Z,40.02
2018-03-03T08:39:37.856Z,41.84
2018-03-03T08:42:03.798Z,41.90
2018-03-03T08:44:29.762Z,42.42
2018-03-03T08:46:55.703Z,41.99
2018-03-03T08:49:21.628Z,41.06
2018-03-03T08:51:47.567Z,38.72
2018-03-03T08:54:13.514Z,40.61
2018-03-03T08:56:39.446Z,39.04
2018-03-03T08:59:05.392Z,40.67
2018-03-03T09:01:31.362Z,40.28
2018-03-03T09:03:57.287Z,40.16
2018-03-03T09:06:23.208Z,39.79
2018-03-03T09:08:49.166Z,38.22
2018-03-03T09:11:15.144Z,39.10
2018-03-03T09:13:41.094Z,37.36
2018-03-03T09:16:07.102Z,38.19
2018-03-03T09:18:33.024Z,39.23
2018-03-03T09:20:58.971Z,38.69
2018-03-03T09:23:25.000Z,38.33
2018-03-03T09:25:50.935Z,38.08
2018-03-03T09:28:21.302Z,38.28
2018-03-03T09:30:47.253Z,37.84
2018-03-03T09:33:13.218Z,38.70
2018-03-03T09:35:39.175Z,38.21
2018-03-03T09:38:05.106Z,37.51
2018-03-03T09:40:31.055Z,37.57
2018-03-03T09:42:57.017Z,37.59
2018-03-03T09:45:22.990Z,38.47
2018-03-03T09:47:48.934Z,41.08
2018-03-03T09:50:14.881Z,37.89
2018-03-03T09:52:40.847Z,37.16
2018-03-03T09:55:07.821Z,36.20
2018-03-03T09:57:33.911Z,36.87
2018-03-03T09:59:59.881Z,37.48
2018-03-03T10:02:25.813Z,36.81
2018-03-03T10:04:51.764Z,37.10
2018-03-03T10:07:17.715Z,36.76
2018-03-03T10:09:43.709Z,36.54
2018-03-03T10:12:09.679Z,36.41
2018-03-03T10:14:35.743Z,36.51
2018-03-03T10:17:01.715Z,36.20
2018-03-03T10:19:27.648Z,36.09
2018-03-03T10:21:53.616Z,36.06
2018-03-03T10:24:19.647Z,36.18
2018-03-03T10:26:45.627Z,35.94
2018-03-03T10:29:11.583Z,35.28
2018-03-03T10:31:37.567Z,36.06
2018-03-03T10:34:03.550Z,36.08
2018-03-03T10:36:30.625Z,35.69
2018-03-03T10:38:56.641Z,35.75
2018-03-03T10:41:22.739Z,35.76
2018-03-03T10:43:48.698Z,35.64
2018-03-03T10:46:14.732Z,35.38
2018-03-03T10:48:40.668Z,35.71
2018-03-03T10:51:08.344Z,35.05
2018-03-03T10:53:34.383Z,35.75
2018-03-03T10:56:00.321Z,35.28
2018-03-03T10:58:26.286Z,35.61
2018-03-03T11:00:52.238Z,38.95
2018-03-03T11:03:18.201Z,36.42
2018-03-03T11:05:44.161Z,37.18
2018-03-03T11:08:10.106Z,35.79
2018-03-03T11:10:36.058Z,35.84
2018-03-03T11:13:02.005Z,35.83
2018-03-03T11:15:27.948Z,35.83
2018-03-03T11:17:53.870Z,37.17
2018-03-03T11:20:19.828Z,36.98
2018-03-03T11:22:45.790Z,37.35
2018-03-03T11:25:11.780Z,37.96
2018-03-03T11:27:37.770Z,36.79
2018-03-03T11:30:03.705Z,37.34
2018-03-03T11:32:29.646Z,36.94
2018-03-03T11:34:55.645Z,37.27
2018-03-03T11:37:21.584Z,37.78
2018-03-03T11:39:47.541Z,36.51
2018-03-03T11:42:13.509Z,36.26
2018-03-03T11:44:39.452Z,36.55
2018-03-03T11:47:05.416Z,36.02
2018-03-03T11:49:31.404Z,39.15
2018-03-03T11:51:57.362Z,36.87
2018-03-03T11:54:23.482Z,35.65
2018-03-03T11:56:49.456Z,35.29
2018-03-03T11:59:15.469Z,35.63
2018-03-03T12:01:41.498Z,35.29
2018-03-03T12:04:07.510Z,35.62
2018-03-03T12:06:33.561Z,35.53
2018-03-03T12:08:59.564Z,36.50
2018-03-03T12:11:25.718Z,35.85
2018-03-03T12:13:51.706Z,36.01
2018-03-03T12:16:17.753Z,35.95
2018-03-03T12:18:43.775Z,35.27
2018-03-03T12:21:09.801Z,35.85
2018-03-03T12:23:36.848Z,35.48
2018-03-03T12:26:03.145Z,35.64
2018-03-03T12:28:29.315Z,35.95
2018-03-03T12:30:56.351Z,35.66
2018-03-03T12:33:22.363Z,35.82
2018-03-03T12:35:48.445Z,35.03
2018-03-03T12:38:15.441Z,34.73
2018-03-03T12:40:41.471Z,35.43
2018-03-03T12:43:07.473Z,35.00
2018-03-03T12:45:33.541Z,35.24
2018-03-03T12:47:59.557Z,35.17
2018-03-03T12:50:25.586Z,35.01
2018-03-03T12:52:51.572Z,34.71
2018-03-03T12:55:17.867Z,34.15
2018-03-03T12:57:44.882Z,34.44
2018-03-03T13:00:10.912Z,34.04
2018-03-03T13:02:36.934Z,34.14
2018-03-03T13:05:02.940Z,33.79
2018-03-03T13:07:28.962Z,33.73
2018-03-03T13:09:54.932Z,34.03
2018-03-03T13:12:20.894Z,33.46
2018-03-03T13:14:46.914Z,33.28
2018-03-03T13:17:12.884Z,32.93
2018-03-03T13:19:38.861Z,33.16
2018-03-03T13:22:04.832Z,32.75
2018-03-03T13:24:30.786Z,32.58
2018-03-03T13:26:56.755Z,33.12
2018-03-03T13:29:22.710Z,32.99
2018-03-03T13:31:49.710Z,32.55
2018-03-03T13:34:15.661Z,32.57
2018-03-03T13:36:41.586Z,32.22
2018-03-03T13:39:07.523Z,32.65
2018-03-03T13:41:33.474Z,33.18
2018-03-03T13:43:59.425Z,33.43
2018-03-03T13:46:25.423Z,33.09
2018-03-03T13:48:51.473Z,32.52
2018-03-03T13:51:17.475Z,32.95
2018-03-03T13:53:43.428Z,33.06
2018-03-03T13:56:09.420Z,33.37
2018-03-03T13:58:35.394Z,33.67
2018-03-03T14:01:01.347Z,33.45
2018-03-03T14:03:27.305Z,33.54
2018-03-03T14:05:53.267Z,33.46
2018-03-03T14:10:51.536Z,33.81
2018-03-03T14:13:17.484Z,33.56
2018-03-03T14:15:43.447Z,33.15
2018-03-03T14:18:09.371Z,33.18
2018-03-03T14:20:35.377Z,33.35
2018-03-03T14:23:01.315Z,33.66
2018-03-03T14:25:27.302Z,33.43
2018-03-03T14:27:53.283Z,33.00
2018-03-03T14:30:19.233Z,33.44
2018-03-03T14:32:45.216Z,33.53
2018-03-03T14:35:11.206Z,33.14
2018-03-03T14:37:37.143Z,33.14
2018-03-03T14:40:03.096Z,33.06
2018-03-03T14:42:29.052Z,32.67
2018-03-03T14:44:55.019Z,33.05
2018-03-03T14:47:20.955Z,33.03
2018-03-03T14:49:46.936Z,32.67
2018-03-03T14:52:12.904Z,32.72
2018-03-03T14:54:38.845Z,32.57
2018-03-03T14:57:04.791Z,32.29
2018-03-03T14:59:30.738Z,32.73
2018-03-03T15:01:56.691Z,32.56
2018-03-03T15:04:22.641Z,33.02
2018-03-03T15:06:48.567Z,32.64
2018-03-03T15:09:14.509Z,32.99
2018-03-03T15:11:40.474Z,32.71
2018-03-03T15:14:06.493Z,32.40
2018-03-03T15:16:32.490Z,33.05
2018-03-03T15:18:58.467Z,32.21
2018-03-03T15:21:24.447Z,32.50
2018-03-03T15:23:50.390Z,32.67
2018-03-03T15:26:16.367Z,32.63
2018-03-03T15:28:42.305Z,32.46
2018-03-03T15:31:08.261Z,33.11
2018-03-03T15:33:34.268Z,32.86
2018-03-03T15:36:00.264Z,33.09
2018-03-03T15:38:26.247Z,32.45
2018-03-03T15:40:52.255Z,32.33
2018-03-03T15:43:18.213Z,32.66
2018-03-03T15:45:44.193Z,32.65
2018-03-03T15:48:10.170Z,32.09
2018-03-03T15:50:36.165Z,32.07
2018-03-03T15:53:02.114Z,32.43
2018-03-03T15:55:28.057Z,32.14
2018-03-03T15:57:54.015Z,32.67
2018-03-03T16:00:19.960Z,32.04
2018-03-03T16:02:45.913Z,32.51
2018-03-03T16:05:11.875Z,32.58
2018-03-03T16:07:37.843Z,32.63
2018-03-03T16:10:03.856Z,33.26
2018-03-03T16:12:29.887Z,32.63
2018-03-03T16:14:55.876Z,32.92
2018-03-03T16:17:21.830Z,32.96
2018-03-03T16:19:47.783Z,33.33
2018-03-03T16:22:13.706Z,33.27
2018-03-03T16:24:39.661Z,33.27
2018-03-03T16:27:05.711Z,32.92
2018-03-03T16:29:31.719Z,33.80
2018-03-03T16:31:57.714Z,33.58
2018-03-03T16:34:23.663Z,33.32
2018-03-03T16:36:49.611Z,33.58
2018-03-03T16:39:15.558Z,33.94
2018-03-03T16:41:41.509Z,34.04
2018-03-03T16:44:07.459Z,33.38
2018-03-03T16:46:33.391Z,33.36
2018-03-03T16:48:59.445Z,33.65
2018-03-03T16:51:25.267Z,34.27
2018-03-03T16:53:51.219Z,33.62
2018-03-03T16:56:17.159Z,33.19
2018-03-03T16:58:43.133Z,33.42
2018-03-03T17:01:09.111Z,33.44
2018-03-03T17:03:35.059Z,33.59
2018-03-03T17:06:01.009Z,33.72
2018-03-03T17:08:27.029Z,33.88
2018-03-03T17:10:52.971Z,34.31
2018-03-03T17:13:18.965Z,33.72
2018-03-03T17:15:45.043Z,33.49
2018-03-03T17:18:10.975Z,33.67
2018-03-03T17:20:36.975Z,33.65
2018-03-03T17:23:02.908Z,33.64
2018-03-03T17:25:28.861Z,34.06
2018-03-03T17:27:54.801Z,33.90
2018-03-03T17:30:20.782Z,34.05
2018-03-03T17:32:46.740Z,33.62
2018-03-03T17:35:12.695Z,34.69
2018-03-03T17:37:38.635Z,33.68
2018-03-03T17:40:04.588Z,34.28
2018-03-03T17:42:30.539Z,33.82
2018-03-03T17:44:56.526Z,34.51
2018-03-03T17:47:22.467Z,33.92
2018-03-03T17:49:48.411Z,34.23
2018-03-03T17:52:14.359Z,35.07
2018-03-03T17:54:40.307Z,35.04
2018-03-03T17:57:06.251Z,35.19
2018-03-03T17:59:32.204Z,35.26
2018-03-03T18:01:58.155Z,34.86
2018-03-03T18:04:24.122Z,34.98
2018-03-03T18:06:50.053Z,34.74
2018-03-03T18:09:16.049Z,34.72
2018-03-03T18:11:41.975Z,34.93
2018-03-03T18:14:07.918Z,34.13
2018-03-03T18:16:33.868Z,34.60
2018-03-03T18:18:59.833Z,34.66
2018-03-03T18:21:25.781Z,34.85
2018-03-03T18:23:51.711Z,34.94
2018-03-03T18:26:17.648Z,34.32
2018-03-03T18:28:43.621Z,34.91
2018-03-03T18:31:09.564Z,35.06
2018-03-03T18:33:35.508Z,34.81
2018-03-03T18:36:01.438Z,34.87
2018-03-03T18:38:27.407Z,35.28
2018-03-03T18:40:53.350Z,35.20
2018-03-03T18:43:19.316Z,35.65
2018-03-03T18:45:45.240Z,34.75
2018-03-03T18:48:11.183Z,34.87
2018-03-03T18:50:37.138Z,35.30
2018-03-03T18:53:03.122Z,35.40
2018-03-03T18:55:29.080Z,35.23
2018-03-03T18:57:55.041Z,35.63
2018-03-03T19:00:21.006Z,36.00
2018-03-03T19:02:46.984Z,35.87
2018-03-03T19:05:12.922Z,35.47
2018-03-03T19:07:38.861Z,35.28
2018-03-03T19:10:04.796Z,35.42
2018-03-03T19:12:30.785Z,34.90
2018-03-03T19:14:56.743Z,35.15
2018-03-03T19:17:22.730Z,35.71
2018-03-03T19:19:48.684Z,35.89
2018-03-03T19:22:14.641Z,35.62
2018-03-03T19:24:40.590Z,35.94
2018-03-03T19:27:06.551Z,36.09
2018-03-03T19:29:32.488Z,36.05
2018-03-03T19:31:58.452Z,36.00
2018-03-03T19:34:24.413Z,35.96
2018-03-03T19:36:50.370Z,36.98
2018-03-03T19:39:16.309Z,36.41
2018-03-03T19:41:42.309Z,37.17
2018-03-03T19:44:08.274Z,36.94
2018-03-03T19:46:34.233Z,37.08
2018-03-03T19:49:00.201Z,37.00
2018-03-03T19:51:26.178Z,36.62
2018-03-03T19:53:52.125Z,37.25
2018-03-03T19:56:18.070Z,36.40
2018-03-03T19:58:44.033Z,37.06
2018-03-03T20:01:09.994Z,36.87
2018-03-03T20:03:35.938Z,37.08
2018-03-03T20:06:01.885Z,35.87
2018-03-03T20:08:27.829Z,37.04
2018-03-03T20:10:53.784Z,37.28
2018-03-03T20:13:19.737Z,36.49
2018-03-03T20:15:45.683Z,36.31
2018-03-03T20:18:11.612Z,37.67
2018-03-03T20:20:37.546Z,38.42
2018-03-03T20:23:03.501Z,38.48
2018-03-03T20:25:29.472Z,38.56
2018-03-03T20:27:55.426Z,36.93
2018-03-03T20:30:21.424Z,37.42
2018-03-03T20:32:47.360Z,36.47
2018-03-03T20:35:13.282Z,36.82
2018-03-03T20:37:39.221Z,36.36
2018-03-03T20:40:05.205Z,36.84
2018-03-03T20:42:31.155Z,36.64
2018-03-03T20:44:57.098Z,37.01
2018-03-03T20:47:23.061Z,36.87
2018-03-03T20:49:49.005Z,38.39
2018-03-03T20:52:14.943Z,37.63
2018-03-03T20:54:40.885Z,37.60
2018-03-03T20:57:06.823Z,37.84
2018-03-03T20:59:32.768Z,37.54
2018-03-03T21:01:58.716Z,37.26
2018-03-03T21:04:24.684Z,36.90
2018-03-03T21:06:50.643Z,37.09
2018-03-03T21:09:16.570Z,38.88
2018-03-03T21:11:42.503Z,37.82
2018-03-03T21:14:08.454Z,37.83
2018-03-03T21:16:34.431Z,39.01
2018-03-03T21:19:00.379Z,37.94
2018-03-03T21:21:26.323Z,37.90
2018-03-03T21:23:52.302Z,37.78
2018-03-03T21:26:18.265Z,37.74
2018-03-03T21:28:44.216Z,38.43
2018-03-03T21:31:10.165Z,38.19
2018-03-03T21:33:36.117Z,38.80
2018-03-03T21:36:02.065Z,38.72
2018-03-03T21:38:28.013Z,38.68
2018-03-03T21:40:53.961Z,38.17
2018-03-03T21:43:19.911Z,38.21
2018-03-03T21:45:45.874Z,37.60
2018-03-03T21:48:11.802Z,38.84
2018-03-03T21:50:37.821Z,39.12
2018-03-03T21:53:03.761Z,41.00
2018-03-03T21:55:29.722Z,40.96
2018-03-03T21:57:55.715Z,40.96
2018-03-03T22:00:21.675Z,39.91
2018-03-03T22:02:47.621Z,39.64
2018-03-03T22:05:13.573Z,39.26
2018-03-03T22:07:39.515Z,37.76
2018-03-03T22:10:05.524Z,39.45
2018-03-03T22:12:31.437Z,41.07
2018-03-03T22:14:57.454Z,40.35
2018-03-03T22:17:23.380Z,41.71
2018-03-03T22:19:49.328Z,40.86
2018-03-03T22:22:15.288Z,39.29
2018-03-03T22:24:41.233Z,39.09
2018-03-03T22:27:07.193Z,40.24
2018-03-03T22:29:33.147Z,39.60
2018-03-03T22:31:59.093Z,39.40
2018-03-03T22:34:25.059Z,39.91
2018-03-03T22:36:51.011Z,40.35
2018-03-03T22:39:16.979Z,39.71
2018-03-03T22:41:42.931Z,40.44
2018-03-03T22:44:08.925Z,40.83
2018-03-03T22:46:34.899Z,40.23
2018-03-03T22:49:00.832Z,41.22
2018-03-03T22:51:26.770Z,40.52
2018-03-03T22:53:52.694Z,40.59
2018-03-03T22:56:18.639Z,40.06
2018-03-03T22:58:44.579Z,40.70
2018-03-03T23:01:10.519Z,41.46
2018-03-03T23:03:36.474Z,41.07
2018-03-03T23:06:02.439Z,41.62
2018-03-03T23:08:28.379Z,40.98
2018-03-03T23:10:54.349Z,42.01
2018-03-03T23:13:20.319Z,41.89
2018-03-03T23:15:46.253Z,41.94
2018-03-03T23:18:12.187Z,41.78
2018-03-03T23:20:38.149Z,41.20
2018-03-03T23:23:04.077Z,41.29
2018-03-03T23:25:30.074Z,41.85
2018-03-03T23:27:56.020Z,42.07
2018-03-03T23:30:21.949Z,42.16
2018-03-03T23:32:47.903Z,42.29
2018-03-03T23:35:13.840Z,42.30
2018-03-03T23:37:39.879Z,41.91
2018-03-03T23:40:05.832Z,42.31
2018-03-03T23:42:31.779Z,42.81
2018-03-03T23:44:57.708Z,43.25
2018-03-03T23:47:23.647Z,43.48
2018-03-03T23:49:49.589Z,42.96
2018-03-03T23:52:15.527Z,43.06
2018-03-03T23:54:41.465Z,43.34
2018-03-03T23:57:07.397Z,42.60
2018-03-03T23:59:33.349Z,42.92
